createdAt,value
2022-10-23T00:01:16.883Z,1.70
2022-10-23T00:03:43.676Z,2.00
2022-10-23T00:06:10.370Z,2.40
2022-10-23T00:08:37.146Z,1.50
2022-10-23T00:11:10.834Z,1.70
2022-10-23T00:13:37.536Z,1.80
2022-10-23T00:16:04.359Z,1.97
2022-10-23T00:18:30.934Z,1.57
2022-10-23T00:20:57.500Z,1.60
2022-10-23T00:23:24.084Z,1.60
2022-10-23T00:25:50.721Z,1.77
2022-10-23T00:28:17.307Z,1.50
2022-10-23T00:30:43.878Z,1.63
2022-10-23T00:33:10.641Z,1.90
2022-10-23T00:35:40.819Z,1.67
2022-10-23T00:38:08.021Z,1.63
2022-10-23T00:40:35.020Z,1.60
2022-10-23T00:43:01.710Z,1.40
2022-10-23T00:45:31.654Z,1.47
2022-10-23T00:47:58.236Z,1.40
2022-10-23T00:50:25.237Z,1.90
2022-10-23T00:52:52.572Z,1.60
2022-10-23T00:55:20.317Z,1.43
2022-10-23T00:57:47.796Z,1.67
2022-10-23T01:00:23.318Z,1.70
2022-10-23T01:02:50.079Z,1.50
2022-10-23T01:05:16.857Z,1.63
2022-10-23T01:07:49.278Z,1.50
2022-10-23T01:10:51.032Z,1.50
2022-10-23T01:13:43.483Z,1.43
2022-10-23T01:16:26.901Z,1.53
2022-10-23T01:19:07.055Z,1.30
2022-10-23T01:21:49.263Z,1.63
2022-10-23T01:24:41.611Z,1.30
2022-10-23T01:27:19.288Z,1.50
2022-10-23T01:29:59.018Z,1.47
2022-10-23T01:32:35.427Z,1.47
2022-10-23T01:35:14.163Z,1.50
2022-10-23T01:37:43.758Z,1.20
2022-10-23T01:40:15.065Z,1.40
2022-10-23T01:42:45.303Z,1.83
2022-10-23T01:45:26.044Z,1.80
2022-10-23T01:47:52.612Z,1.10
2022-10-23T01:50:19.267Z,1.70
2022-10-23T01:52:45.836Z,1.40
2022-10-23T01:55:12.441Z,1.30
2022-10-23T01:57:39.557Z,1.70
2022-10-23T02:00:08.952Z,1.40
2022-10-23T02:02:36.132Z,1.53
2022-10-23T02:05:11.742Z,1.63
2022-10-23T02:07:38.307Z,1.80
2022-10-23T02:10:05.524Z,1.10
2022-10-23T02:12:45.235Z,1.57
2022-10-23T02:15:28.757Z,1.50
2022-10-23T02:18:09.605Z,1.40
2022-10-23T02:20:40.535Z,1.57
2022-10-23T02:23:22.329Z,1.67
2022-10-23T02:25:50.812Z,1.20
2022-10-23T02:28:19.882Z,1.30
2022-10-23T02:30:47.354Z,1.30
2022-10-23T02:33:13.944Z,1.43
2022-10-23T02:35:40.524Z,1.47
2022-10-23T02:38:26.861Z,1.80
2022-10-23T02:40:53.438Z,1.43
2022-10-23T02:43:29.182Z,1.13
2022-10-23T02:46:08.535Z,1.37
2022-10-23T02:48:41.654Z,1.47
2022-10-23T02:51:40.208Z,1.20
2022-10-23T02:54:09.999Z,1.17
2022-10-23T02:56:40.826Z,1.50
2022-10-23T02:59:22.328Z,1.60
2022-10-23T03:01:58.135Z,1.20
2022-10-23T03:04:24.776Z,1.20
2022-10-23T03:06:51.480Z,1.50
2022-10-23T03:09:18.068Z,1.23
2022-10-23T03:11:44.644Z,1.43
2022-10-23T03:14:12.429Z,1.40
2022-10-23T03:16:39.012Z,1.27
2022-10-23T03:19:05.625Z,1.40
2022-10-23T03:21:32.249Z,1.30
2022-10-23T03:23:58.803Z,1.30
2022-10-23T03:26:25.395Z,1.37
2022-10-23T03:28:51.950Z,1.70
2022-10-23T03:31:18.526Z,1.40
2022-10-23T03:33:45.083Z,1.77
2022-10-23T03:36:11.663Z,1.40
2022-10-23T03:38:38.222Z,1.17
2022-10-23T03:41:04.953Z,1.20
2022-10-23T03:43:31.516Z,1.17
2022-10-23T03:45:58.131Z,1.40
2022-10-23T03:48:24.998Z,1.10
2022-10-23T03:50:51.585Z,1.50
2022-10-23T03:53:18.197Z,1.20
2022-10-23T03:55:45.089Z,1.30
2022-10-23T03:58:11.674Z,1.30
2022-10-23T04:00:38.273Z,1.00
2022-10-23T04:03:04.867Z,1.40
2022-10-23T04:05:31.449Z,1.50
2022-10-23T04:07:58.037Z,1.17
2022-10-23T04:10:24.621Z,1.30
2022-10-23T04:12:51.183Z,1.30
2022-10-23T04:15:17.754Z,1.43
2022-10-23T04:17:44.323Z,1.50
2022-10-23T04:20:10.881Z,1.50
2022-10-23T04:22:37.456Z,1.10
2022-10-23T04:25:04.225Z,1.17
2022-10-23T04:27:30.790Z,1.30
2022-10-23T04:29:59.100Z,1.20
2022-10-23T04:32:26.040Z,1.40
2022-10-23T04:34:52.620Z,1.03
2022-10-23T04:37:19.617Z,1.20
2022-10-23T04:39:46.195Z,1.30
2022-10-23T04:42:12.836Z,1.10
2022-10-23T04:44:39.450Z,1.23
2022-10-23T04:47:06.032Z,1.13
2022-10-23T04:49:32.583Z,1.07
2022-10-23T04:51:59.163Z,1.70
2022-10-23T04:54:25.722Z,1.30
2022-10-23T04:56:52.292Z,1.43
2022-10-23T04:59:18.876Z,1.20
2022-10-23T05:01:45.480Z,1.20
2022-10-23T05:04:13.609Z,1.10
2022-10-23T05:06:40.184Z,1.10
2022-10-23T05:09:06.751Z,1.20
2022-10-23T05:11:33.331Z,1.10
2022-10-23T05:13:59.920Z,1.20
2022-10-23T05:16:31.711Z,1.20
2022-10-23T05:18:58.297Z,1.10
2022-10-23T05:21:26.767Z,1.23
2022-10-23T05:23:54.163Z,1.00
2022-10-23T05:26:22.311Z,1.43
2022-10-23T05:28:49.272Z,1.20
2022-10-23T05:31:16.019Z,1.17
2022-10-23T05:33:42.589Z,1.20
2022-10-23T05:36:09.267Z,1.30
2022-10-23T05:38:35.968Z,1.20
2022-10-23T05:41:03.092Z,1.23
2022-10-23T05:43:31.144Z,1.47
2022-10-23T05:45:58.585Z,1.20
2022-10-23T05:48:34.419Z,1.40
2022-10-23T05:51:09.305Z,1.37
2022-10-23T05:53:38.751Z,1.40
2022-10-23T05:56:08.866Z,0.93
2022-10-23T05:58:35.506Z,1.27
2022-10-23T06:01:09.146Z,1.40
2022-10-23T06:03:36.351Z,1.30
2022-10-23T06:06:03.099Z,1.27
2022-10-23T06:08:30.219Z,1.07
2022-10-23T06:10:56.821Z,1.17
2022-10-23T06:13:23.395Z,1.40
2022-10-23T06:15:50.028Z,1.47
2022-10-23T06:18:16.642Z,1.60
2022-10-23T06:20:43.205Z,1.77
2022-10-23T06:23:09.781Z,1.93
2022-10-23T06:25:36.343Z,2.00
2022-10-23T06:28:02.915Z,1.60
2022-10-23T06:30:29.524Z,1.87
2022-10-23T06:32:56.214Z,2.50
2022-10-23T06:35:23.036Z,2.83
2022-10-23T06:37:49.619Z,2.40
2022-10-23T06:40:16.216Z,2.83
2022-10-23T06:42:43.010Z,12.37
2022-10-23T06:45:09.810Z,4.27
2022-10-23T06:47:36.388Z,4.03
2022-10-23T06:50:02.984Z,3.20
2022-10-23T06:52:47.835Z,3.67
2022-10-23T06:55:14.761Z,2.57
2022-10-23T06:57:42.547Z,2.23
2022-10-23T07:00:09.971Z,2.23
2022-10-23T07:02:36.724Z,2.73
2022-10-23T07:05:03.594Z,2.47
2022-10-23T07:07:30.595Z,2.93
2022-10-23T07:09:57.151Z,2.43
2022-10-23T07:12:23.740Z,2.80
2022-10-23T07:14:50.664Z,3.10
2022-10-23T07:17:17.235Z,2.87
2022-10-23T07:19:43.799Z,2.47
2022-10-23T07:22:13.284Z,2.90
2022-10-23T07:24:42.358Z,2.93
2022-10-23T07:27:08.946Z,2.93
2022-10-23T07:29:35.520Z,3.20
2022-10-23T07:32:02.245Z,2.73
2022-10-23T07:34:28.825Z,2.90
2022-10-23T07:36:56.877Z,2.60
2022-10-23T07:39:23.583Z,2.70
2022-10-23T07:41:50.194Z,2.77
2022-10-23T07:44:16.760Z,2.87
2022-10-23T07:46:43.337Z,3.73
2022-10-23T07:49:10.993Z,3.90
2022-10-23T07:51:37.542Z,4.00
2022-10-23T07:54:04.131Z,4.00
2022-10-23T07:56:31.354Z,3.57
2022-10-23T07:58:58.007Z,3.87
2022-10-23T08:01:33.428Z,2.97
2022-10-23T08:04:00.407Z,3.20
2022-10-23T08:06:26.976Z,3.17
2022-10-23T08:08:53.557Z,2.70
2022-10-23T08:11:25.671Z,2.80
2022-10-23T08:13:53.075Z,2.67
2022-10-23T08:16:19.672Z,2.90
2022-10-23T08:18:47.110Z,2.73
2022-10-23T08:21:13.680Z,3.20
2022-10-23T08:23:40.262Z,2.97
2022-10-23T08:26:06.886Z,3.10
2022-10-23T08:28:33.583Z,2.90
2022-10-23T08:31:05.639Z,3.20
2022-10-23T08:33:32.225Z,3.37
2022-10-23T08:35:58.808Z,2.70
2022-10-23T08:38:25.370Z,2.97
2022-10-23T08:40:52.582Z,3.50
2022-10-23T08:43:24.188Z,2.97
2022-10-23T08:46:00.022Z,3.03
2022-10-23T08:48:37.530Z,3.07
2022-10-23T08:51:28.926Z,3.10
2022-10-23T08:54:00.829Z,2.90
2022-10-23T08:56:38.094Z,2.73
2022-10-23T08:59:25.005Z,3.07
2022-10-23T09:02:10.094Z,2.53
2022-10-23T09:04:36.786Z,2.67
2022-10-23T09:09:35.886Z,3.23
2022-10-23T09:12:12.820Z,5.77
2022-10-23T09:14:42.410Z,4.80
2022-10-23T09:17:08.957Z,4.20
2022-10-23T09:19:35.574Z,4.27
2022-10-23T09:22:02.220Z,3.50
2022-10-23T09:24:31.700Z,3.30
2022-10-23T09:26:58.479Z,3.90
2022-10-23T09:29:27.511Z,3.60
2022-10-23T09:31:58.457Z,3.23
2022-10-23T09:34:26.820Z,3.20
2022-10-23T09:39:32.334Z,3.33
2022-10-23T09:41:59.188Z,2.93
2022-10-23T09:44:34.564Z,2.77
2022-10-23T09:47:07.101Z,2.57
2022-10-23T09:49:34.027Z,2.33
2022-10-23T09:52:12.927Z,2.70
2022-10-23T09:54:46.665Z,2.43
2022-10-23T09:57:38.345Z,2.37
2022-10-23T10:00:06.902Z,2.30
2022-10-23T10:02:36.560Z,2.50
2022-10-23T10:05:38.449Z,2.20
2022-10-23T10:08:32.295Z,2.43
2022-10-23T10:11:20.711Z,2.20
2022-10-23T10:14:22.591Z,2.20
2022-10-23T10:17:05.554Z,2.50
2022-10-23T10:19:56.517Z,2.70
2022-10-23T10:22:39.999Z,2.43
2022-10-23T10:25:16.798Z,2.30
2022-10-23T10:28:02.100Z,2.50
2022-10-23T10:30:39.810Z,2.03
2022-10-23T10:33:14.745Z,2.20
2022-10-23T10:36:13.487Z,2.67
2022-10-23T10:38:50.856Z,2.20
2022-10-23T10:41:22.561Z,2.40
2022-10-23T10:44:09.194Z,2.07
2022-10-23T10:47:00.150Z,2.07
2022-10-23T10:49:38.163Z,2.20
2022-10-23T10:52:25.469Z,2.10
2022-10-23T10:55:40.648Z,2.40
2022-10-23T10:58:17.099Z,2.43
2022-10-23T11:00:44.166Z,2.30
2022-10-23T11:03:40.303Z,2.10
2022-10-23T11:06:12.361Z,2.03
2022-10-23T11:08:49.987Z,2.30
2022-10-23T11:11:33.856Z,2.10
2022-10-23T11:14:00.422Z,2.17
2022-10-23T11:16:35.998Z,2.20
2022-10-23T11:19:19.770Z,2.20
2022-10-23T11:22:06.537Z,2.10
2022-10-23T11:24:58.245Z,2.37
2022-10-23T11:27:52.775Z,2.10
2022-10-23T11:30:29.531Z,2.00
2022-10-23T11:33:28.461Z,1.80
2022-10-23T11:36:01.058Z,2.10
2022-10-23T11:38:32.127Z,2.33
2022-10-23T11:41:26.621Z,2.30
2022-10-23T11:44:01.534Z,2.00
2022-10-23T11:46:35.842Z,1.90
2022-10-23T11:49:03.743Z,1.80
2022-10-23T11:51:36.914Z,2.03
2022-10-23T11:54:10.191Z,1.90
2022-10-23T11:56:37.746Z,1.80
2022-10-23T11:59:31.815Z,1.60
2022-10-23T12:01:59.686Z,1.93
2022-10-23T12:04:45.355Z,1.97
2022-10-23T12:07:30.591Z,2.10
2022-10-23T12:09:59.447Z,2.03
2022-10-23T12:12:34.197Z,2.20
2022-10-23T12:15:18.769Z,2.10
2022-10-23T12:17:46.757Z,2.63
2022-10-23T12:20:13.674Z,2.47
2022-10-23T12:23:16.300Z,2.57
2022-10-23T12:26:10.472Z,2.37
2022-10-23T12:29:00.893Z,2.10
2022-10-23T12:31:51.750Z,2.43
2022-10-23T12:34:28.721Z,2.20
2022-10-23T12:37:08.354Z,2.50
2022-10-23T12:39:37.331Z,2.00
2022-10-23T12:42:04.027Z,2.50
2022-10-23T12:44:30.770Z,1.90
2022-10-23T12:47:01.071Z,2.10
2022-10-23T12:49:28.763Z,2.43
2022-10-23T12:52:02.857Z,2.00
2022-10-23T12:54:31.117Z,2.30
2022-10-23T12:56:57.717Z,2.20
2022-10-23T12:59:32.912Z,2.03
2022-10-23T13:01:59.859Z,2.20
2022-10-23T13:04:29.840Z,2.00
2022-10-23T13:07:01.198Z,2.00
2022-10-23T13:09:33.514Z,2.37
2022-10-23T13:12:00.939Z,2.20
2022-10-23T13:14:42.008Z,2.13
2022-10-23T13:17:11.398Z,2.37
2022-10-23T13:19:38.018Z,2.10
2022-10-23T13:22:15.296Z,2.00
2022-10-23T13:24:41.879Z,2.57
2022-10-23T13:27:33.019Z,2.37
2022-10-23T13:29:59.871Z,1.97
2022-10-23T13:32:29.342Z,3.37
2022-10-23T13:35:04.026Z,3.83
2022-10-23T13:37:30.934Z,4.03
2022-10-23T13:40:10.058Z,3.27
2022-10-23T13:42:36.638Z,2.90
2022-10-23T13:45:03.293Z,3.33
2022-10-23T13:47:29.854Z,2.93
2022-10-23T13:49:56.456Z,4.53
2022-10-23T13:52:23.725Z,4.70
2022-10-23T13:54:50.635Z,4.33
2022-10-23T13:57:17.226Z,4.47
2022-10-23T13:59:43.825Z,4.07
2022-10-23T14:02:21.801Z,3.97
2022-10-23T14:04:49.552Z,7.00
2022-10-23T14:07:16.146Z,5.40
2022-10-23T14:09:42.704Z,5.23
2022-10-23T14:12:09.317Z,4.63
2022-10-23T14:14:35.896Z,4.97
2022-10-23T14:17:02.507Z,4.63
2022-10-23T14:19:29.112Z,4.10
2022-10-23T14:21:55.720Z,5.47
2022-10-23T14:24:22.296Z,4.13
2022-10-23T14:26:48.908Z,4.07
2022-10-23T14:29:22.998Z,3.90
2022-10-23T14:31:50.819Z,3.87
2022-10-23T14:34:17.381Z,3.83
2022-10-23T14:36:50.194Z,3.40
2022-10-23T14:39:17.261Z,4.13
2022-10-23T14:41:43.891Z,3.73
2022-10-23T14:44:10.471Z,3.80
2022-10-23T14:46:38.187Z,3.73
2022-10-23T14:49:04.814Z,4.23
2022-10-23T14:51:31.413Z,3.53
2022-10-23T14:54:01.350Z,3.50
2022-10-23T14:56:28.590Z,3.23
2022-10-23T14:58:55.276Z,3.10
2022-10-23T15:01:21.999Z,3.70
2022-10-23T15:03:54.539Z,3.80
2022-10-23T15:06:21.126Z,3.67
2022-10-23T15:08:54.848Z,2.83
2022-10-23T15:11:21.640Z,3.53
2022-10-23T15:13:48.232Z,3.33
2022-10-23T15:16:14.844Z,3.57
2022-10-23T15:18:41.461Z,3.30
2022-10-23T15:21:08.304Z,3.43
2022-10-23T15:23:38.697Z,3.30
2022-10-23T15:26:07.208Z,3.73
2022-10-23T15:28:33.840Z,3.73
2022-10-23T15:31:00.496Z,3.10
2022-10-23T15:33:27.240Z,3.70
2022-10-23T15:35:54.058Z,3.37
2022-10-23T15:38:20.742Z,3.27
2022-10-23T15:40:47.337Z,6.43
2022-10-23T15:43:14.141Z,7.87
2022-10-23T15:45:40.900Z,11.30
2022-10-23T15:48:07.640Z,11.53
2022-10-23T15:50:34.450Z,14.13
2022-10-23T15:53:01.021Z,13.77
2022-10-23T15:55:27.587Z,4.50
2022-10-23T15:57:54.621Z,3.70
2022-10-23T16:00:21.355Z,3.70
2022-10-23T16:02:48.184Z,3.83
2022-10-23T16:05:17.256Z,3.30
2022-10-23T16:07:43.828Z,4.23
2022-10-23T16:10:10.386Z,3.53
2022-10-23T16:12:36.962Z,3.77
2022-10-23T16:15:03.696Z,3.60
2022-10-23T16:17:30.274Z,3.20
2022-10-23T16:19:56.872Z,3.13
2022-10-23T16:22:23.438Z,3.03
2022-10-23T16:24:49.998Z,3.27
2022-10-23T16:27:17.130Z,3.10
2022-10-23T16:29:43.714Z,3.10
2022-10-23T16:32:10.300Z,2.70
2022-10-23T16:34:36.871Z,3.80
2022-10-23T16:37:03.431Z,4.63
2022-10-23T16:39:31.398Z,4.87
2022-10-23T16:41:57.963Z,4.17
2022-10-23T16:44:24.583Z,4.87
2022-10-23T16:46:51.145Z,4.10
2022-10-23T16:49:17.728Z,4.00
2022-10-23T16:51:44.311Z,3.80
2022-10-23T16:54:10.935Z,3.53
2022-10-23T16:56:37.547Z,3.40
2022-10-23T16:59:04.148Z,3.70
2022-10-23T17:01:31.120Z,3.37
2022-10-23T17:03:57.814Z,3.40
2022-10-23T17:06:28.996Z,3.33
2022-10-23T17:08:55.864Z,3.00
2022-10-23T17:11:23.892Z,3.17
2022-10-23T17:13:55.156Z,3.27
2022-10-23T17:16:41.224Z,3.77
2022-10-23T17:19:20.547Z,3.63
2022-10-23T17:21:47.677Z,3.07
2022-10-23T17:24:14.243Z,3.07
2022-10-23T17:26:40.831Z,3.27
2022-10-23T17:29:08.956Z,2.83
2022-10-23T17:31:39.730Z,3.43
2022-10-23T17:34:08.348Z,3.10
2022-10-23T17:36:37.127Z,3.20
2022-10-23T17:39:07.803Z,3.17
2022-10-23T17:41:34.651Z,2.97
2022-10-23T17:44:01.223Z,3.47
2022-10-23T17:46:29.134Z,3.13
2022-10-23T17:48:59.394Z,3.40
2022-10-23T17:51:27.035Z,3.20
2022-10-23T17:53:54.361Z,3.03
2022-10-23T17:56:23.180Z,3.57
2022-10-23T17:58:50.654Z,3.93
2022-10-23T18:01:19.031Z,3.17
2022-10-23T18:03:45.683Z,3.10
2022-10-23T18:06:32.524Z,3.00
2022-10-23T18:08:59.878Z,3.00
2022-10-23T18:11:30.909Z,3.10
2022-10-23T18:16:30.080Z,3.00
2022-10-23T18:18:56.651Z,2.43
2022-10-23T18:21:23.656Z,3.23
2022-10-23T18:23:50.358Z,2.70
2022-10-23T18:26:24.455Z,2.80
2022-10-23T18:28:52.436Z,2.93
2022-10-23T18:31:19.911Z,2.80
2022-10-23T18:33:46.586Z,2.60
2022-10-23T18:36:14.012Z,2.83
2022-10-23T18:38:40.689Z,2.43
2022-10-23T18:41:07.286Z,2.50
2022-10-23T18:43:45.743Z,2.63
2022-10-23T18:46:13.022Z,3.07
2022-10-23T18:48:39.809Z,2.37
2022-10-23T18:51:23.002Z,3.13
2022-10-23T18:53:49.636Z,2.97
2022-10-23T18:56:21.580Z,2.87
2022-10-23T18:58:49.931Z,2.73
2022-10-23T19:01:16.683Z,3.00
2022-10-23T19:03:43.447Z,2.90
2022-10-23T19:06:10.048Z,3.27
2022-10-23T19:08:37.998Z,2.50
2022-10-23T19:11:06.388Z,2.90
2022-10-23T19:13:38.912Z,2.73
2022-10-23T19:16:12.795Z,2.73
2022-10-23T19:18:40.256Z,2.80
2022-10-23T19:21:07.600Z,3.00
2022-10-23T19:23:36.270Z,3.27
2022-10-23T19:26:08.805Z,3.03
2022-10-23T19:28:37.845Z,3.13
2022-10-23T19:31:04.690Z,3.00
2022-10-23T19:33:32.503Z,2.93
2022-10-23T19:36:02.314Z,3.43
2022-10-23T19:38:31.850Z,3.13
2022-10-23T19:40:58.412Z,3.60
2022-10-23T19:43:25.007Z,3.07
2022-10-23T19:45:51.574Z,3.10
2022-10-23T19:48:18.155Z,3.10
2022-10-23T19:50:44.750Z,3.63
2022-10-23T19:53:11.712Z,3.30
2022-10-23T19:55:38.266Z,3.23
2022-10-23T19:58:04.832Z,2.63
2022-10-23T20:00:31.387Z,2.77
2022-10-23T20:02:57.978Z,3.30
2022-10-23T20:05:24.647Z,2.77
2022-10-23T20:07:51.366Z,2.40
2022-10-23T20:10:17.999Z,3.00
2022-10-23T20:12:51.560Z,3.00
2022-10-23T20:15:29.079Z,2.80
2022-10-23T20:17:55.652Z,2.77
2022-10-23T20:20:22.679Z,3.43
2022-10-23T20:22:53.224Z,3.07
2022-10-23T20:25:21.890Z,3.00
2022-10-23T20:27:48.465Z,3.03
2022-10-23T20:30:15.033Z,3.53
2022-10-23T20:32:41.892Z,2.87
2022-10-23T20:35:09.347Z,3.27
2022-10-23T20:37:35.926Z,3.03
2022-10-23T20:40:02.492Z,2.93
2022-10-23T20:42:29.084Z,3.07
2022-10-23T20:44:55.705Z,3.03
2022-10-23T20:47:22.301Z,2.80
2022-10-23T20:49:48.857Z,2.97
2022-10-23T20:52:15.423Z,2.57
2022-10-23T20:54:42.064Z,2.87
2022-10-23T20:57:08.636Z,3.10
2022-10-23T20:59:35.380Z,2.40
2022-10-23T21:02:01.999Z,3.07
2022-10-23T21:04:29.131Z,3.30
2022-10-23T21:07:11.904Z,2.90
2022-10-23T21:09:39.134Z,2.87
2022-10-23T21:12:06.475Z,2.63
2022-10-23T21:14:33.390Z,3.27
2022-10-23T21:16:59.964Z,2.80
2022-10-23T21:19:26.574Z,2.73
2022-10-23T21:21:53.548Z,2.30
2022-10-23T21:24:20.123Z,2.77
2022-10-23T21:26:46.928Z,2.90
2022-10-23T21:29:18.485Z,2.50
2022-10-23T21:31:45.851Z,2.60
2022-10-23T21:34:12.537Z,2.50
2022-10-23T21:36:48.492Z,2.67
2022-10-23T21:39:25.783Z,2.60
2022-10-23T21:41:52.418Z,2.53
2022-10-23T21:44:18.990Z,2.77
2022-10-23T21:46:45.688Z,2.70
2022-10-23T21:49:12.626Z,3.27
2022-10-23T21:51:39.282Z,3.07
2022-10-23T21:54:07.829Z,3.00
2022-10-23T21:56:36.443Z,2.40
2022-10-23T21:59:03.451Z,2.50
2022-10-23T22:01:30.166Z,2.90
2022-10-23T22:03:56.913Z,2.50
2022-10-23T22:06:25.773Z,2.40
2022-10-23T22:08:52.745Z,2.90
2022-10-23T22:11:19.319Z,2.70
2022-10-23T22:13:46.008Z,2.40
2022-10-23T22:16:13.578Z,2.27
2022-10-23T22:18:40.255Z,2.53
2022-10-23T22:21:09.172Z,2.00
2022-10-23T22:23:35.843Z,2.63
2022-10-23T22:26:09.083Z,2.37
2022-10-23T22:28:35.664Z,2.50
2022-10-23T22:31:02.256Z,2.43
2022-10-23T22:33:29.270Z,2.43
2022-10-23T22:36:02.615Z,2.47
2022-10-23T22:38:31.280Z,2.33
2022-10-23T22:41:00.764Z,2.30
2022-10-23T22:43:27.569Z,2.30
2022-10-23T22:45:54.144Z,2.13
2022-10-23T22:48:20.714Z,2.33
2022-10-23T22:50:47.266Z,2.33
2022-10-23T22:53:13.851Z,2.20
2022-10-23T22:55:43.578Z,2.27
2022-10-23T22:58:10.149Z,2.43
2022-10-23T23:00:41.378Z,2.70
2022-10-23T23:03:10.174Z,2.47
2022-10-23T23:08:09.350Z,2.40
2022-10-23T23:10:35.920Z,2.50
2022-10-23T23:13:02.560Z,2.03
2022-10-23T23:15:29.155Z,2.20
2022-10-23T23:17:55.739Z,2.33
2022-10-23T23:20:22.323Z,2.50
2022-10-23T23:22:48.898Z,1.90
2022-10-23T23:25:15.526Z,2.40
2022-10-23T23:27:42.095Z,2.67
2022-10-23T23:30:09.454Z,1.87
2022-10-23T23:32:36.064Z,2.20
2022-10-23T23:35:02.727Z,1.80
2022-10-23T23:37:29.308Z,2.47
2022-10-23T23:39:55.983Z,2.30
2022-10-23T23:42:22.538Z,2.30
2022-10-23T23:44:56.046Z,2.00
2022-10-23T23:47:35.747Z,2.33
2022-10-23T23:50:02.758Z,2.10
2022-10-23T23:52:29.333Z,2.17
2022-10-23T23:54:55.921Z,2.03
2022-10-23T23:57:22.497Z,2.47
2022-10-23T23:59:49.050Z,2.00
